createdAt,value
2018-04-24T00:00:39.111Z,8.77
2018-04-24T00:03:07.363Z,9.30
2018-04-24T00:05:34.880Z,8.03
2018-04-24T00:08:02.369Z,7.93
2018-04-24T00:10:29.863Z,11.33
2018-04-24T00:19:41.334Z,8.40
2018-04-24T00:22:08.836Z,11.80
2018-04-24T00:24:36.335Z,10.10
2018-04-24T00:27:03.878Z,7.90
2018-04-24T00:29:31.381Z,8.80
2018-04-24T00:31:58.868Z,9.90
2018-04-24T00:34:26.488Z,6.47
2018-04-24T00:36:53.907Z,8.63
2018-04-24T00:39:21.404Z,10.83
2018-04-24T00:41:48.993Z,11.40
2018-04-24T00:44:16.532Z,10.70
2018-04-24T00:46:44.031Z,12.97
2018-04-24T00:49:13.478Z,10.33
2018-04-24T00:51:40.972Z,8.70
2018-04-24T00:54:08.466Z,10.90
2018-04-24T00:56:36.015Z,11.27
2018-04-24T00:59:03.511Z,9.43
2018-04-24T01:01:31.013Z,13.83
2018-04-24T01:03:58.539Z,11.87
2018-04-24T01:06:26.051Z,8.53
2018-04-24T01:08:53.549Z,10.80
2018-04-24T01:11:21.928Z,13.57
2018-04-24T01:13:50.198Z,9.17
2018-04-24T01:16:17.706Z,10.47
2018-04-24T01:18:46.003Z,11.93
2018-04-24T01:21:13.499Z,12.53
2018-04-24T01:23:40.998Z,12.73
2018-04-24T01:26:08.539Z,14.20
2018-04-24T01:28:36.027Z,14.77
2018-04-24T01:31:03.519Z,10.40
2018-04-24T01:33:31.106Z,10.50
2018-04-24T01:35:58.598Z,12.40
2018-04-24T01:38:26.094Z,15.37
2018-04-24T01:40:53.617Z,14.53
2018-04-24T01:43:21.115Z,12.33
2018-04-24T01:45:48.626Z,13.07
2018-04-24T01:48:16.158Z,13.07
2018-04-24T01:50:44.442Z,12.40
2018-04-24T01:53:11.939Z,13.63
2018-04-24T01:55:39.480Z,11.80
2018-04-24T01:58:06.983Z,13.40
2018-04-24T02:00:34.494Z,13.27
2018-04-24T02:03:02.850Z,14.77
2018-04-24T02:05:30.346Z,14.57
2018-04-24T02:07:57.854Z,13.77
2018-04-24T02:10:25.382Z,12.37
2018-04-24T02:12:52.879Z,14.77
2018-04-24T02:15:20.374Z,14.40
2018-04-24T02:17:47.917Z,10.33
2018-04-24T02:20:16.191Z,11.83
2018-04-24T02:22:43.785Z,13.03
2018-04-24T02:25:11.278Z,15.27
2018-04-24T02:27:38.772Z,15.00
2018-04-24T02:30:06.267Z,13.57
2018-04-24T02:32:33.811Z,14.80
2018-04-24T02:35:01.307Z,12.60
2018-04-24T02:37:29.718Z,15.90
2018-04-24T02:39:57.254Z,14.73
2018-04-24T02:42:24.750Z,16.10
2018-04-24T02:44:52.244Z,15.07
2018-04-24T02:47:20.567Z,15.13
2018-04-24T02:49:48.058Z,17.37
2018-04-24T02:52:15.546Z,17.47
2018-04-24T02:54:43.082Z,13.93
2018-04-24T02:57:10.604Z,15.03
2018-04-24T02:59:38.877Z,16.50
2018-04-24T03:02:06.405Z,16.27
2018-04-24T03:04:33.907Z,16.67
2018-04-24T03:07:02.199Z,15.87
2018-04-24T03:09:29.763Z,15.97
2018-04-24T03:11:57.356Z,14.57
2018-04-24T03:14:24.803Z,19.03
2018-04-24T03:16:52.346Z,17.43
2018-04-24T03:19:20.769Z,12.53
2018-04-24T03:21:48.265Z,16.83
2018-04-24T03:24:16.554Z,17.67
2018-04-24T03:26:44.063Z,15.90
2018-04-24T03:29:11.553Z,14.73
2018-04-24T03:31:39.874Z,16.23
2018-04-24T03:34:08.091Z,17.67
2018-04-24T03:36:36.550Z,15.57
2018-04-24T03:39:04.084Z,19.73
2018-04-24T03:41:31.582Z,15.60
2018-04-24T03:43:59.074Z,12.80
2018-04-24T03:46:27.371Z,14.70
2018-04-24T03:48:54.862Z,13.70
2018-04-24T03:51:22.355Z,14.43
2018-04-24T03:53:49.891Z,15.83
2018-04-24T03:56:17.391Z,15.63
2018-04-24T03:58:44.886Z,14.13
2018-04-24T04:01:12.444Z,15.93
2018-04-24T04:03:39.940Z,18.23
2018-04-24T04:06:07.433Z,17.10
2018-04-24T04:08:35.711Z,14.00
2018-04-24T04:11:03.226Z,14.60
2018-04-24T04:13:30.764Z,16.67
2018-04-24T04:15:58.347Z,17.10
2018-04-24T04:18:37.680Z,18.10
2018-04-24T04:21:16.886Z,16.63
2018-04-24T04:23:56.098Z,14.73
2018-04-24T04:26:23.612Z,15.80
2018-04-24T04:28:51.099Z,16.20
2018-04-24T04:31:20.226Z,14.93
2018-04-24T04:33:47.745Z,15.87
2018-04-24T04:36:15.261Z,19.50
2018-04-24T04:38:42.756Z,13.40
2018-04-24T04:41:10.301Z,18.93
2018-04-24T04:43:37.799Z,17.50
2018-04-24T04:46:05.299Z,15.20
2018-04-24T04:48:32.845Z,15.93
2018-04-24T04:51:00.435Z,17.87
2018-04-24T04:53:27.931Z,17.80
2018-04-24T04:55:55.440Z,16.57
2018-04-24T04:58:22.934Z,13.13
2018-04-24T05:00:50.431Z,13.63
2018-04-24T05:03:17.954Z,15.93
2018-04-24T05:05:45.442Z,17.40
2018-04-24T05:08:12.966Z,19.37
2018-04-24T05:10:40.575Z,18.60
2018-04-24T05:13:08.066Z,17.03
2018-04-24T05:15:35.568Z,18.83
2018-04-24T05:18:03.089Z,18.00
2018-04-24T05:20:30.596Z,18.53
2018-04-24T05:22:58.119Z,17.70
2018-04-24T05:25:25.638Z,17.83
2018-04-24T05:27:53.132Z,17.90
2018-04-24T05:30:20.657Z,21.30
2018-04-24T05:32:48.198Z,19.17
2018-04-24T05:35:16.074Z,21.33
2018-04-24T05:37:43.572Z,16.80
2018-04-24T05:40:11.095Z,16.80
2018-04-24T05:42:38.592Z,18.50
2018-04-24T05:45:06.107Z,22.00
2018-04-24T05:47:33.633Z,20.43
2018-04-24T05:50:01.129Z,22.50
2018-04-24T05:52:28.636Z,23.30
2018-04-24T05:54:56.169Z,22.97
2018-04-24T05:57:23.683Z,19.40
2018-04-24T05:59:51.178Z,19.77
2018-04-24T06:02:18.730Z,24.37
2018-04-24T06:04:46.227Z,21.67
2018-04-24T06:07:13.788Z,19.50
2018-04-24T06:09:41.240Z,18.70
2018-04-24T06:12:09.510Z,20.47
2018-04-24T06:14:37.774Z,25.03
2018-04-24T06:17:05.300Z,21.43
2018-04-24T06:19:32.816Z,19.83
2018-04-24T06:22:01.573Z,23.53
2018-04-24T06:24:30.879Z,22.33
2018-04-24T06:26:58.374Z,21.30
2018-04-24T06:29:26.636Z,20.63
2018-04-24T06:43:41.232Z,22.57
2018-04-24T06:46:08.720Z,21.20
2018-04-24T06:48:36.216Z,21.83
2018-04-24T06:51:04.498Z,21.60
2018-04-24T06:53:31.997Z,22.53
2018-04-24T06:55:59.491Z,18.70
2018-04-24T06:58:27.028Z,18.60
2018-04-24T07:00:54.578Z,25.40
2018-04-24T07:03:22.112Z,19.50
2018-04-24T07:05:49.650Z,22.97
2018-04-24T07:08:17.919Z,19.10
2018-04-24T07:10:45.424Z,21.53
2018-04-24T07:13:12.971Z,19.87
2018-04-24T07:15:40.474Z,20.70
2018-04-24T07:18:07.984Z,19.80
2018-04-24T07:20:35.519Z,20.83
2018-04-24T07:23:03.023Z,17.67
2018-04-24T07:25:30.524Z,20.47
2018-04-24T07:27:58.045Z,22.93
2018-04-24T07:30:25.584Z,19.43
2018-04-24T07:32:53.175Z,16.57
2018-04-24T07:35:20.663Z,18.80
2018-04-24T07:37:48.165Z,19.40
2018-04-24T07:40:16.427Z,20.80
2018-04-24T07:42:44.691Z,21.47
2018-04-24T07:45:12.211Z,20.50
2018-04-24T07:47:39.707Z,20.07
2018-04-24T07:50:07.233Z,19.50
2018-04-24T07:52:34.738Z,18.87
2018-04-24T07:55:02.248Z,18.63
2018-04-24T07:57:29.774Z,22.10
2018-04-24T07:59:58.039Z,16.20
2018-04-24T08:02:26.303Z,21.70
2018-04-24T08:04:53.890Z,21.13
2018-04-24T08:07:22.165Z,20.50
2018-04-24T08:09:49.679Z,18.97
2018-04-24T08:12:17.211Z,15.57
2018-04-24T08:14:44.733Z,20.90
2018-04-24T08:17:12.233Z,21.63
2018-04-24T08:19:39.792Z,20.50
2018-04-24T08:22:07.295Z,16.87
2018-04-24T08:24:34.790Z,20.67
2018-04-24T08:27:03.141Z,18.77
2018-04-24T08:29:30.635Z,18.53
2018-04-24T08:31:58.895Z,21.80
2018-04-24T08:34:26.414Z,17.03
2018-04-24T08:36:53.926Z,17.73
2018-04-24T08:39:22.195Z,19.97
2018-04-24T08:41:49.750Z,19.83
2018-04-24T08:44:17.251Z,19.63
2018-04-24T08:46:44.764Z,22.33
2018-04-24T08:49:12.339Z,18.90
2018-04-24T08:51:39.842Z,19.53
2018-04-24T08:54:07.339Z,22.03
2018-04-24T08:56:34.878Z,18.53
2018-04-24T08:59:02.382Z,19.10
2018-04-24T09:01:29.887Z,19.50
2018-04-24T09:03:57.438Z,17.37
2018-04-24T09:06:24.943Z,20.30
2018-04-24T09:08:52.448Z,18.00
2018-04-24T09:11:19.987Z,23.23
2018-04-24T09:13:47.499Z,19.17
2018-04-24T09:16:15.009Z,17.37
2018-04-24T09:18:42.560Z,20.47
2018-04-24T09:21:10.858Z,18.80
2018-04-24T09:23:38.368Z,22.20
2018-04-24T09:26:05.915Z,20.83
2018-04-24T09:28:33.423Z,19.37
2018-04-24T09:31:00.927Z,18.10
2018-04-24T09:33:28.555Z,18.73
2018-04-24T09:35:56.037Z,17.83
2018-04-24T09:38:23.537Z,19.23
2018-04-24T09:40:51.066Z,20.10
2018-04-24T09:43:18.570Z,16.83
2018-04-24T09:45:46.071Z,14.93
2018-04-24T09:48:13.608Z,16.60
2018-04-24T09:50:41.931Z,17.73
2018-04-24T09:53:09.431Z,15.93
2018-04-24T09:55:37.007Z,20.13
2018-04-24T09:58:04.514Z,18.80
2018-04-24T10:00:36.935Z,21.13
2018-04-24T10:03:04.482Z,15.77
2018-04-24T10:05:31.983Z,16.13
2018-04-24T10:07:59.482Z,13.17
2018-04-24T10:10:27.020Z,19.50
2018-04-24T10:12:54.519Z,15.43
2018-04-24T10:15:22.020Z,13.67
2018-04-24T10:17:50.359Z,16.13
2018-04-24T10:20:17.862Z,18.40
2018-04-24T10:22:45.359Z,15.60
2018-04-24T10:25:12.883Z,16.50
2018-04-24T10:27:40.395Z,16.40
2018-04-24T10:30:07.973Z,14.23
2018-04-24T10:32:35.502Z,10.90
2018-04-24T10:35:03.019Z,14.83
2018-04-24T10:37:31.346Z,12.17
2018-04-24T10:39:58.871Z,14.47
2018-04-24T10:42:26.387Z,10.60
2018-04-24T10:44:53.903Z,12.47
2018-04-24T10:47:21.472Z,12.03
2018-04-24T10:49:48.979Z,16.33
2018-04-24T10:52:16.482Z,10.83
2018-04-24T10:54:44.031Z,11.63
2018-04-24T10:57:11.592Z,13.17
2018-04-24T10:59:39.058Z,12.17
2018-04-24T11:02:06.650Z,11.50
2018-04-24T11:04:34.142Z,11.23
2018-04-24T11:07:01.638Z,13.80
2018-04-24T11:09:29.170Z,13.07
2018-04-24T11:11:56.774Z,11.13
2018-04-24T11:14:24.206Z,10.23
2018-04-24T11:16:52.510Z,11.60
2018-04-24T11:19:20.015Z,12.80
2018-04-24T11:21:47.524Z,11.37
2018-04-24T11:24:15.066Z,13.63
2018-04-24T11:26:42.560Z,12.50
2018-04-24T11:29:10.070Z,15.00
2018-04-24T11:31:37.603Z,14.60
2018-04-24T11:34:05.109Z,15.93
2018-04-24T11:36:33.278Z,14.43
2018-04-24T11:39:00.842Z,15.00
2018-04-24T11:41:28.892Z,13.67
2018-04-24T11:43:56.415Z,14.07
2018-04-24T11:46:23.928Z,10.47
2018-04-24T11:48:52.967Z,14.07
2018-04-24T11:51:20.462Z,13.90
2018-04-24T11:53:48.010Z,14.90
2018-04-24T11:56:15.566Z,12.93
2018-04-24T11:58:43.058Z,10.80
2018-04-24T12:01:10.870Z,13.10
2018-04-24T12:03:39.198Z,16.50
2018-04-24T12:06:06.692Z,15.90
2018-04-24T12:08:34.976Z,23.87
2018-04-24T12:11:02.472Z,13.70
2018-04-24T12:13:30.982Z,13.07
2018-04-24T12:15:58.739Z,15.03
2018-04-24T12:18:26.334Z,12.53
2018-04-24T12:20:53.822Z,13.43
2018-04-24T12:23:21.386Z,15.17
2018-04-24T12:25:49.498Z,10.83
2018-04-24T12:28:17.055Z,12.53
2018-04-24T12:30:44.590Z,14.37
2018-04-24T12:33:12.086Z,16.93
2018-04-24T12:35:39.652Z,13.77
2018-04-24T12:38:07.139Z,15.47
2018-04-24T12:40:34.649Z,12.83
2018-04-24T12:43:02.146Z,14.33
2018-04-24T12:45:29.690Z,10.50
2018-04-24T12:47:57.187Z,10.93
2018-04-24T12:50:24.682Z,13.53
2018-04-24T12:52:52.250Z,10.20
2018-04-24T12:55:19.767Z,12.93
2018-04-24T12:57:47.489Z,12.60
2018-04-24T13:00:15.025Z,9.47
2018-04-24T13:02:42.971Z,12.47
2018-04-24T13:05:10.484Z,10.53
2018-04-24T13:07:38.035Z,10.10
2018-04-24T13:10:05.553Z,9.60
2018-04-24T13:12:33.043Z,9.73
2018-04-24T13:15:00.578Z,11.93
2018-04-24T13:17:28.079Z,10.73
2018-04-24T13:19:55.583Z,11.03
2018-04-24T13:22:23.157Z,11.67
2018-04-24T13:24:50.658Z,11.23
2018-04-24T13:27:18.151Z,13.17
2018-04-24T13:29:45.694Z,10.60
2018-04-24T13:32:13.204Z,13.97
2018-04-24T13:34:40.698Z,14.53
2018-04-24T13:37:08.271Z,13.67
2018-04-24T13:39:35.763Z,13.73
2018-04-24T13:42:04.116Z,10.67
2018-04-24T13:44:32.326Z,10.13
2018-04-24T13:46:59.826Z,8.33
2018-04-24T13:49:27.318Z,5.60
2018-04-24T13:51:54.886Z,10.40
2018-04-24T13:54:22.379Z,6.50
2018-04-24T13:56:49.879Z,9.40
2018-04-24T13:59:17.415Z,8.60
2018-04-24T14:01:44.926Z,5.87
2018-04-24T14:04:13.192Z,8.40
2018-04-24T14:06:40.722Z,6.80
2018-04-24T14:09:08.221Z,6.27
2018-04-24T14:11:35.715Z,9.93
2018-04-24T14:14:03.281Z,9.03
2018-04-24T14:16:30.852Z,7.43
2018-04-24T14:18:58.338Z,7.80
2018-04-24T14:21:25.871Z,9.03
2018-04-24T14:23:53.395Z,10.20
2018-04-24T14:26:20.900Z,6.63
2018-04-24T14:28:48.466Z,7.53
2018-04-24T14:31:15.962Z,6.80
2018-04-24T14:33:43.476Z,5.10
2018-04-24T14:36:11.027Z,7.33
2018-04-24T14:38:38.555Z,7.47
2018-04-24T14:41:06.060Z,6.87
2018-04-24T14:43:33.596Z,8.73
2018-04-24T14:46:01.095Z,5.47
2018-04-24T14:48:28.602Z,9.53
2018-04-24T14:50:56.890Z,8.23
2018-04-24T14:53:25.155Z,5.07
2018-04-24T14:55:53.476Z,7.40
2018-04-24T14:58:21.071Z,8.03
2018-04-24T15:00:48.546Z,6.07
2018-04-24T15:03:16.043Z,10.50
2018-04-24T15:05:43.574Z,6.87
2018-04-24T15:08:11.075Z,8.30
2018-04-24T15:10:38.570Z,7.07
2018-04-24T15:13:06.135Z,5.37
2018-04-24T15:15:33.635Z,5.03
2018-04-24T15:18:01.127Z,7.97
2018-04-24T15:20:28.769Z,10.83
2018-04-24T15:22:57.009Z,6.77
2018-04-24T15:25:24.515Z,8.47
2018-04-24T15:27:52.126Z,7.80
2018-04-24T15:30:19.635Z,7.67
2018-04-24T15:32:47.139Z,7.23
2018-04-24T15:35:14.718Z,8.83
2018-04-24T15:37:42.243Z,9.33
2018-04-24T15:40:09.739Z,7.37
2018-04-24T15:42:38.115Z,7.17
2018-04-24T15:45:05.608Z,10.20
2018-04-24T15:47:33.105Z,10.07
2018-04-24T15:50:00.628Z,7.67
2018-04-24T15:52:28.144Z,8.00
2018-04-24T15:54:55.720Z,8.93
2018-04-24T15:57:23.209Z,6.27
2018-04-24T15:59:50.715Z,6.07
2018-04-24T16:02:18.206Z,6.33
2018-04-24T16:04:46.514Z,7.87
2018-04-24T16:07:14.014Z,6.40
2018-04-24T16:09:41.506Z,5.97
2018-04-24T16:12:10.146Z,13.03
2018-04-24T16:14:37.638Z,13.37
2018-04-24T16:17:05.139Z,6.13
2018-04-24T16:19:32.741Z,6.60
2018-04-24T16:22:00.610Z,10.60
2018-04-24T16:24:28.098Z,7.03
2018-04-24T16:26:55.682Z,10.97
2018-04-24T16:29:23.171Z,9.23
2018-04-24T16:31:51.426Z,6.03
2018-04-24T16:34:18.975Z,11.53
2018-04-24T16:36:46.467Z,6.10
2018-04-24T16:39:13.966Z,4.47
2018-04-24T16:41:41.495Z,6.63
2018-04-24T16:44:08.994Z,7.40
2018-04-24T16:46:36.562Z,6.87
2018-04-24T16:49:04.125Z,7.63
2018-04-24T16:51:32.383Z,9.33
2018-04-24T16:53:59.876Z,6.13
2018-04-24T16:56:27.426Z,7.43
2018-04-24T16:58:55.683Z,7.23
2018-04-24T17:01:23.178Z,7.63
2018-04-24T17:03:50.718Z,6.40
2018-04-24T17:06:19.016Z,10.63
2018-04-24T17:08:46.478Z,10.00
2018-04-24T17:11:14.032Z,7.37
2018-04-24T17:13:41.540Z,9.43
2018-04-24T17:16:09.044Z,8.50
2018-04-24T17:18:36.591Z,8.63
2018-04-24T17:21:04.862Z,12.17
2018-04-24T17:23:32.352Z,8.47
2018-04-24T17:25:59.931Z,7.30
2018-04-24T17:28:27.438Z,9.83
2018-04-24T17:30:55.023Z,6.07
2018-04-24T17:33:22.506Z,5.90
2018-04-24T17:35:50.111Z,9.20
2018-04-24T17:38:17.614Z,4.97
2018-04-24T17:40:45.963Z,6.73
2018-04-24T17:43:13.411Z,6.90
2018-04-24T17:45:40.898Z,9.10
2018-04-24T17:48:09.178Z,6.87
2018-04-24T17:50:36.704Z,7.47
2018-04-24T17:53:04.208Z,6.77
2018-04-24T17:55:32.555Z,7.00
2018-04-24T17:58:01.123Z,4.63
2018-04-24T18:00:28.920Z,5.77
2018-04-24T18:02:56.476Z,4.10
2018-04-24T18:05:23.968Z,5.30
2018-04-24T18:07:52.222Z,9.23
2018-04-24T18:10:19.760Z,5.37
2018-04-24T18:12:47.254Z,7.87
2018-04-24T18:15:15.527Z,5.37
2018-04-24T18:17:43.810Z,5.40
2018-04-24T18:20:11.303Z,4.53
2018-04-24T18:22:38.805Z,7.30
2018-04-24T18:25:06.433Z,9.77
2018-04-24T18:27:33.926Z,9.77
2018-04-24T18:30:01.443Z,9.70
2018-04-24T18:32:29.034Z,4.67
2018-04-24T18:34:56.531Z,6.80
2018-04-24T18:37:24.786Z,8.07
2018-04-24T18:39:52.305Z,6.80
2018-04-24T18:42:19.803Z,6.30
2018-04-24T18:44:47.311Z,5.80
2018-04-24T18:47:17.890Z,7.57
2018-04-24T18:49:45.556Z,8.53
2018-04-24T18:52:13.051Z,6.50
2018-04-24T18:54:41.391Z,8.03
2018-04-24T18:57:08.883Z,8.67
2018-04-24T18:59:37.145Z,8.60
2018-04-24T19:02:04.656Z,6.33
2018-04-24T19:04:32.159Z,10.57
2018-04-24T19:06:59.646Z,5.07
2018-04-24T19:09:27.952Z,6.57
2018-04-24T19:11:55.479Z,6.90
2018-04-24T19:14:25.378Z,7.93
2018-04-24T19:16:52.959Z,5.87
2018-04-24T19:19:26.375Z,5.60
2018-04-24T19:21:53.914Z,11.93
2018-04-24T19:24:27.107Z,6.63
2018-04-24T19:26:54.626Z,9.17
2018-04-24T19:29:22.183Z,7.33
2018-04-24T19:31:55.848Z,9.77
2018-04-24T19:34:24.176Z,8.33
2018-04-24T19:36:51.681Z,7.73
2018-04-24T19:39:25.002Z,9.80
2018-04-24T19:41:52.526Z,8.03
2018-04-24T19:44:20.011Z,9.43
2018-04-24T19:46:47.583Z,5.73
2018-04-24T19:49:20.923Z,6.43
2018-04-24T19:51:48.377Z,7.07
2018-04-24T19:54:15.870Z,6.53
2018-04-24T19:56:43.371Z,4.10
2018-04-24T19:59:10.915Z,8.60
2018-04-24T20:01:38.408Z,5.47
2018-04-24T20:04:05.939Z,7.17
2018-04-24T20:13:17.221Z,6.50
2018-04-24T20:15:44.731Z,8.90
2018-04-24T20:18:12.287Z,10.07
2018-04-24T20:20:39.750Z,11.63
2018-04-24T20:23:07.282Z,10.20
2018-04-24T20:25:34.781Z,10.77
2018-04-24T20:28:02.346Z,8.60
2018-04-24T20:30:29.838Z,8.87
2018-04-24T20:32:57.334Z,9.97
2018-04-24T20:35:25.691Z,8.07
2018-04-24T20:37:53.187Z,8.17
2018-04-24T20:40:20.674Z,9.33
2018-04-24T20:42:48.199Z,11.63
2018-04-24T20:45:15.690Z,7.23
2018-04-24T20:47:43.214Z,11.73
2018-04-24T20:50:10.769Z,8.33
2018-04-24T20:52:39.033Z,6.53
2018-04-24T20:55:06.535Z,8.07
2018-04-24T20:57:34.115Z,11.57
2018-04-24T21:00:01.615Z,7.97
2018-04-24T21:02:29.117Z,10.10
2018-04-24T21:04:56.630Z,8.60
2018-04-24T21:07:24.136Z,13.23
2018-04-24T21:09:51.645Z,6.53
2018-04-24T21:12:19.174Z,9.70
2018-04-24T21:14:46.693Z,9.53
2018-04-24T21:17:14.224Z,9.10
2018-04-24T21:19:42.142Z,8.53
2018-04-24T21:22:09.690Z,6.40
2018-04-24T21:24:37.182Z,8.30
2018-04-24T21:27:04.761Z,9.23
2018-04-24T21:29:32.262Z,9.77
2018-04-24T21:32:00.518Z,8.73
2018-04-24T21:34:28.131Z,9.20
2018-04-24T21:36:56.321Z,7.97
2018-04-24T21:39:23.815Z,8.77
2018-04-24T21:41:51.402Z,9.97
2018-04-24T21:44:19.680Z,9.07
2018-04-24T21:46:47.194Z,7.47
2018-04-24T21:49:14.733Z,14.33
2018-04-24T21:51:42.235Z,9.20
2018-04-24T21:54:09.731Z,6.67
2018-04-24T21:56:37.286Z,10.13
2018-04-24T21:59:04.803Z,10.97
2018-04-24T22:01:32.303Z,8.40
2018-04-24T22:04:00.631Z,8.70
2018-04-24T22:06:28.123Z,7.57
2018-04-24T22:08:55.614Z,11.20
2018-04-24T22:11:23.919Z,8.63
2018-04-24T22:13:52.182Z,10.80
2018-04-24T22:16:19.690Z,11.17
2018-04-24T22:18:47.251Z,9.47
2018-04-24T22:21:14.747Z,10.17
2018-04-24T22:23:43.015Z,8.90
2018-04-24T22:26:10.587Z,8.27
2018-04-24T22:28:38.847Z,11.33
2018-04-24T22:31:06.346Z,10.67
2018-04-24T22:33:33.879Z,9.03
2018-04-24T22:36:02.138Z,8.87
2018-04-24T22:38:29.638Z,13.50
2018-04-24T22:40:57.159Z,12.57
2018-04-24T22:43:24.650Z,7.67
2018-04-24T22:45:52.914Z,8.40
2018-04-24T22:48:20.435Z,16.00
2018-04-24T22:50:47.946Z,10.63
2018-04-24T22:53:16.210Z,11.43
2018-04-24T22:55:43.791Z,8.70
2018-04-24T22:58:11.294Z,8.33
2018-04-24T23:00:38.792Z,10.20
2018-04-24T23:03:06.336Z,8.30
2018-04-24T23:05:33.835Z,11.30
2018-04-24T23:08:01.338Z,13.03
2018-04-24T23:10:40.628Z,10.80
2018-04-24T23:13:19.946Z,15.13
2018-04-24T23:15:59.934Z,10.07
2018-04-24T23:18:39.137Z,11.73
2018-04-24T23:21:06.975Z,14.43
2018-04-24T23:23:34.470Z,10.07
2018-04-24T23:26:01.965Z,12.77
2018-04-24T23:28:29.546Z,13.77
2018-04-24T23:30:57.039Z,8.73
2018-04-24T23:33:24.527Z,6.60
2018-04-24T23:35:52.054Z,8.97
2018-04-24T23:38:19.543Z,9.97
2018-04-24T23:40:47.051Z,11.80
2018-04-24T23:43:14.595Z,12.67
2018-04-24T23:45:42.100Z,11.30
2018-04-24T23:48:09.599Z,11.87
2018-04-24T23:50:37.143Z,10.43
2018-04-24T23:53:04.650Z,12.67
2018-04-24T23:55:32.149Z,13.43
2018-04-24T23:57:59.740Z,12.10
